sensor_id;sensor_type;location;lat;lon;timestamp;pressure;altitude;pressure_sealevel;temperature;humidity
60373;BME280;46216;52.220;5.134;2023-03-03T00:01:21;102748.00;;;2.59;100.00
60373;BME280;46216;52.220;5.134;2023-03-03T00:03:49;102750.63;;;2.59;100.00
60373;BME280;46216;52.220;5.134;2023-03-03T00:06:15;102748.88;;;2.62;100.00
60373;BME280;46216;52.220;5.134;2023-03-03T00:08:40;102747.13;;;2.62;100.00
60373;BME280;46216;52.220;5.134;2023-03-03T00:11:06;102750.56;;;2.69;100.00
60373;BME280;46216;52.220;5.134;2023-03-03T00:13:40;102741.75;;;2.70;100.00
60373;BME280;46216;52.220;5.134;2023-03-03T00:16:24;102749.63;;;2.71;100.00
60373;BME280;46216;52.220;5.134;2023-03-03T00:18:51;102749.63;;;2.73;100.00
60373;BME280;46216;52.220;5.134;2023-03-03T00:21:31;102755.75;;;2.75;100.00
60373;BME280;46216;52.220;5.134;2023-03-03T00:24:10;102753.13;;;2.73;100.00
60373;BME280;46216;52.220;5.134;2023-03-03T00:26:43;102760.13;;;2.74;100.00
60373;BME280;46216;52.220;5.134;2023-03-03T00:29:25;102758.44;;;2.70;100.00
60373;BME280;46216;52.220;5.134;2023-03-03T00:31:52;102757.50;;;2.74;100.00
60373;BME280;46216;52.220;5.134;2023-03-03T00:36:43;102764.56;;;2.72;100.00
60373;BME280;46216;52.220;5.134;2023-03-03T00:41:52;102764.56;;;2.71;100.00
60373;BME280;46216;52.220;5.134;2023-03-03T00:44:36;102761.09;;;2.69;100.00
60373;BME280;46216;52.220;5.134;2023-03-03T00:47:29;102762.88;;;2.65;100.00
60373;BME280;46216;52.220;5.134;2023-03-03T00:55:24;102780.47;;;2.60;100.00
60373;BME280;46216;52.220;5.134;2023-03-03T00:57:49;102778.75;;;2.56;100.00
60373;BME280;46216;52.220;5.134;2023-03-03T01:00:15;102781.38;;;2.51;100.00
60373;BME280;46216;52.220;5.134;2023-03-03T01:02:40;102784.94;;;2.52;100.00
60373;BME280;46216;52.220;5.134;2023-03-03T01:05:06;102787.59;;;2.44;100.00
60373;BME280;46216;52.220;5.134;2023-03-03T01:07:31;102784.09;;;2.44;100.00
60373;BME280;46216;52.220;5.134;2023-03-03T01:09:57;102783.28;;;2.35;100.00
60373;BME280;46216;52.220;5.134;2023-03-03T01:12:22;102782.41;;;2.35;100.00
60373;BME280;46216;52.220;5.134;2023-03-03T01:14:48;102786.88;;;2.25;100.00
60373;BME280;46216;52.220;5.134;2023-03-03T01:17:17;102779.88;;;2.21;100.00
60373;BME280;46216;52.220;5.134;2023-03-03T01:19:42;102776.41;;;2.13;100.00
60373;BME280;46216;52.220;5.134;2023-03-03T01:22:07;102779.94;;;2.12;100.00
60373;BME280;46216;52.220;5.134;2023-03-03T01:24:33;102778.22;;;2.08;100.00
60373;BME280;46216;52.220;5.134;2023-03-03T01:26:58;102780.00;;;2.00;100.00
60373;BME280;46216;52.220;5.134;2023-03-03T01:29:23;102776.53;;;1.98;100.00
60373;BME280;46216;52.220;5.134;2023-03-03T01:31:49;102783.53;;;1.93;100.00
60373;BME280;46216;52.220;5.134;2023-03-03T01:34:14;102778.31;;;1.86;100.00
60373;BME280;46216;52.220;5.134;2023-03-03T01:36:39;102781.84;;;1.87;100.00
60373;BME280;46216;52.220;5.134;2023-03-03T01:39:04;102782.75;;;1.75;100.00
60373;BME280;46216;52.220;5.134;2023-03-03T01:41:30;102781.06;;;1.65;100.00
60373;BME280;46216;52.220;5.134;2023-03-03T01:43:59;102795.09;;;1.67;100.00
60373;BME280;46216;52.220;5.134;2023-03-03T01:46:29;102786.31;;;1.65;100.00
60373;BME280;46216;52.220;5.134;2023-03-03T01:49:06;102792.47;;;1.64;100.00
60373;BME280;46216;52.220;5.134;2023-03-03T01:51:39;102786.34;;;1.63;100.00
60373;BME280;46216;52.220;5.134;2023-03-03T01:54:13;102789.84;;;1.64;100.00
60373;BME280;46216;52.220;5.134;2023-03-03T01:56:42;102788.94;;;1.62;100.00
60373;BME280;46216;52.220;5.134;2023-03-03T01:59:21;102787.19;;;1.67;100.00
60373;BME280;46216;52.220;5.134;2023-03-03T02:01:48;102795.94;;;1.69;100.00
60373;BME280;46216;52.220;5.134;2023-03-03T02:04:14;102782.78;;;1.71;100.00
60373;BME280;46216;52.220;5.134;2023-03-03T02:06:43;102790.66;;;1.72;100.00
60373;BME280;46216;52.220;5.134;2023-03-03T02:09:31;102788.94;;;1.71;100.00
60373;BME280;46216;52.220;5.134;2023-03-03T02:12:04;102790.66;;;1.75;100.00
60373;BME280;46216;52.220;5.134;2023-03-03T02:14:29;102792.41;;;1.73;100.00
60373;BME280;46216;52.220;5.134;2023-03-03T02:16:55;102787.13;;;1.81;100.00
60373;BME280;46216;52.220;5.134;2023-03-03T02:22:07;102782.72;;;1.80;100.00
60373;BME280;46216;52.220;5.134;2023-03-03T02:24:44;102788.88;;;1.79;100.00
60373;BME280;46216;52.220;5.134;2023-03-03T02:27:12;102787.13;;;1.81;100.00
60373;BME280;46216;52.220;5.134;2023-03-03T02:29:38;102791.50;;;1.79;100.00
60373;BME280;46216;52.220;5.134;2023-03-03T02:32:04;102788.91;;;1.77;100.00
60373;BME280;46216;52.220;5.134;2023-03-03T02:34:29;102789.75;;;1.81;100.00
60373;BME280;46216;52.220;5.134;2023-03-03T02:36:54;102792.38;;;1.82;100.00
60373;BME280;46216;52.220;5.134;2023-03-03T02:39:23;102788.84;;;1.83;100.00
60373;BME280;46216;52.220;5.134;2023-03-03T02:44:31;102788.03;;;1.77;100.00
60373;BME280;46216;52.220;5.134;2023-03-03T02:46:56;102785.41;;;1.75;100.00
60373;BME280;46216;52.220;5.134;2023-03-03T02:49:27;102794.16;;;1.74;100.00
60373;BME280;46216;52.220;5.134;2023-03-03T02:51:53;102792.38;;;1.79;100.00
60373;BME280;46216;52.220;5.134;2023-03-03T02:54:21;102791.53;;;1.80;100.00
60373;BME280;46216;52.220;5.134;2023-03-03T02:56:46;102789.75;;;1.81;100.00
60373;BME280;46216;52.220;5.134;2023-03-03T02:59:12;102795.88;;;1.84;100.00
60373;BME280;46216;52.220;5.134;2023-03-03T03:01:38;102794.09;;;1.83;100.00
60373;BME280;46216;52.220;5.134;2023-03-03T03:04:12;102789.72;;;1.82;100.00
60373;BME280;46216;52.220;5.134;2023-03-03T03:06:38;102799.38;;;1.85;100.00
60373;BME280;46216;52.220;5.134;2023-03-03T03:09:06;102788.91;;;1.74;100.00
60373;BME280;46216;52.220;5.134;2023-03-03T03:11:32;102793.22;;;1.86;100.00
60373;BME280;46216;52.220;5.134;2023-03-03T03:13:59;102790.59;;;1.87;100.00
60373;BME280;46216;52.220;5.134;2023-03-03T03:16:24;102799.31;;;1.93;100.00
60373;BME280;46216;52.220;5.134;2023-03-03T03:18:50;102794.06;;;1.96;100.00
60373;BME280;46216;52.220;5.134;2023-03-03T03:21:16;102790.53;;;1.98;100.00
60373;BME280;46216;52.220;5.134;2023-03-03T03:23:42;102782.63;;;2.01;100.00
60373;BME280;46216;52.220;5.134;2023-03-03T03:26:07;102788.75;;;2.02;100.00
60373;BME280;46216;52.220;5.134;2023-03-03T03:28:33;102782.63;;;2.00;100.00
60373;BME280;46216;52.220;5.134;2023-03-03T03:30:59;102781.78;;;2.01;100.00
60373;BME280;46216;52.220;5.134;2023-03-03T03:33:25;102789.66;;;2.01;100.00
60373;BME280;46216;52.220;5.134;2023-03-03T03:35:52;102792.28;;;2.01;100.00
60373;BME280;46216;52.220;5.134;2023-03-03T03:38:20;102785.28;;;1.97;100.00
60373;BME280;46216;52.220;5.134;2023-03-03T03:40:46;102786.19;;;1.93;100.00
60373;BME280;46216;52.220;5.134;2023-03-03T03:43:12;102790.53;;;1.94;100.00
60373;BME280;46216;52.220;5.134;2023-03-03T03:45:38;102795.78;;;1.98;100.00
60373;BME280;46216;52.220;5.134;2023-03-03T03:48:03;102803.69;;;1.98;100.00
60373;BME280;46216;52.220;5.134;2023-03-03T03:50:29;102799.31;;;1.96;100.00
60373;BME280;46216;52.220;5.134;2023-03-03T03:52:54;102793.22;;;1.87;100.00
60373;BME280;46216;52.220;5.134;2023-03-03T03:55:20;102798.50;;;1.87;100.00
60373;BME280;46216;52.220;5.134;2023-03-03T03:57:47;102807.22;;;1.94;100.00
60373;BME280;46216;52.220;5.134;2023-03-03T04:00:13;102804.56;;;1.96;100.00
60373;BME280;46216;52.220;5.134;2023-03-03T04:02:38;102806.34;;;1.95;100.00
60373;BME280;46216;52.220;5.134;2023-03-03T04:05:04;102807.19;;;1.96;100.00
60373;BME280;46216;52.220;5.134;2023-03-03T04:07:29;102805.44;;;1.98;100.00
60373;BME280;46216;52.220;5.134;2023-03-03T04:09:55;102809.78;;;2.00;100.00
60373;BME280;46216;52.220;5.134;2023-03-03T04:12:20;102806.31;;;1.98;100.00
60373;BME280;46216;52.220;5.134;2023-03-03T04:14:46;102815.06;;;1.99;100.00
60373;BME280;46216;52.220;5.134;2023-03-03T04:17:21;102801.91;;;2.00;100.00
60373;BME280;46216;52.220;5.134;2023-03-03T04:19:48;102809.78;;;2.05;100.00
60373;BME280;46216;52.220;5.134;2023-03-03T04:22:14;102808.91;;;2.07;100.00
60373;BME280;46216;52.220;5.134;2023-03-03T04:24:40;102809.78;;;2.03;100.00
60373;BME280;46216;52.220;5.134;2023-03-03T04:27:06;102801.00;;;2.09;100.00
60373;BME280;46216;52.220;5.134;2023-03-03T04:29:32;102812.38;;;2.09;100.00
60373;BME280;46216;52.220;5.134;2023-03-03T04:31:58;102808.91;;;2.04;100.00
60373;BME280;46216;52.220;5.134;2023-03-03T04:34:23;102813.25;;;2.10;100.00
60373;BME280;46216;52.220;5.134;2023-03-03T04:36:48;102815.88;;;2.13;100.00
60373;BME280;46216;52.220;5.134;2023-03-03T04:39:14;102815.88;;;2.13;100.00
60373;BME280;46216;52.220;5.134;2023-03-03T04:41:39;102809.75;;;2.14;100.00
60373;BME280;46216;52.220;5.134;2023-03-03T04:44:04;102814.97;;;2.17;100.00
60373;BME280;46216;52.220;5.134;2023-03-03T04:46:30;102818.47;;;2.16;100.00
60373;BME280;46216;52.220;5.134;2023-03-03T04:48:55;102813.19;;;2.22;100.00
60373;BME280;46216;52.220;5.134;2023-03-03T04:51:21;102822.81;;;2.25;100.00
60373;BME280;46216;52.220;5.134;2023-03-03T04:53:46;102814.94;;;2.25;100.00
60373;BME280;46216;52.220;5.134;2023-03-03T04:56:12;102822.75;;;2.31;100.00
60373;BME280;46216;52.220;5.134;2023-03-03T04:58:37;102822.75;;;2.34;100.00
60373;BME280;46216;52.220;5.134;2023-03-03T05:01:03;102821.84;;;2.36;100.00
60373;BME280;46216;52.220;5.134;2023-03-03T05:03:28;102822.78;;;2.32;100.00
60373;BME280;46216;52.220;5.134;2023-03-03T05:05:53;102820.09;;;2.39;100.00
60373;BME280;46216;52.220;5.134;2023-03-03T05:08:19;102819.19;;;2.41;100.00
60373;BME280;46216;52.220;5.134;2023-03-03T05:10:44;102821.81;;;2.44;100.00
60373;BME280;46216;52.220;5.134;2023-03-03T05:13:10;102818.31;;;2.42;100.00
60373;BME280;46216;52.220;5.134;2023-03-03T05:15:35;102808.69;;;2.40;100.00
60373;BME280;46216;52.220;5.134;2023-03-03T05:18:01;102814.81;;;2.43;100.00
60373;BME280;46216;52.220;5.134;2023-03-03T05:20:26;102811.28;;;2.46;100.00
60373;BME280;46216;52.220;5.134;2023-03-03T05:22:52;102820.91;;;2.47;100.00
60373;BME280;46216;52.220;5.134;2023-03-03T05:25:19;102814.81;;;2.45;100.00
60373;BME280;46216;52.220;5.134;2023-03-03T05:27:44;102811.28;;;2.46;100.00
60373;BME280;46216;52.220;5.134;2023-03-03T05:30:10;102809.53;;;2.45;100.00
60373;BME280;46216;52.220;5.134;2023-03-03T05:32:36;102818.31;;;2.45;100.00
60373;BME280;46216;52.220;5.134;2023-03-03T05:35:02;102813.03;;;2.48;100.00
60373;BME280;46216;52.220;5.134;2023-03-03T05:37:28;102814.78;;;2.46;100.00
60373;BME280;46216;52.220;5.134;2023-03-03T05:39:53;102810.38;;;2.47;100.00
60373;BME280;46216;52.220;5.134;2023-03-03T05:42:18;102805.06;;;2.51;100.00
60373;BME280;46216;52.220;5.134;2023-03-03T05:44:44;102804.22;;;2.49;100.00
60373;BME280;46216;52.220;5.134;2023-03-03T05:47:09;102803.31;;;2.55;100.00
60373;BME280;46216;52.220;5.134;2023-03-03T05:49:35;102819.09;;;2.56;100.00
60373;BME280;46216;52.220;5.134;2023-03-03T05:52:00;102813.88;;;2.52;100.00
60373;BME280;46216;52.220;5.134;2023-03-03T05:54:26;102824.41;;;2.52;100.00
60373;BME280;46216;52.220;5.134;2023-03-03T05:56:51;102820.88;;;2.51;100.00
60373;BME280;46216;52.220;5.134;2023-03-03T05:59:17;102819.13;;;2.50;100.00
60373;BME280;46216;52.220;5.134;2023-03-03T06:01:43;102825.25;;;2.51;100.00
60373;BME280;46216;52.220;5.134;2023-03-03T06:04:08;102812.16;;;2.46;100.00
60373;BME280;46216;52.220;5.134;2023-03-03T06:06:34;102822.63;;;2.54;100.00
60373;BME280;46216;52.220;5.134;2023-03-03T06:08:59;102826.13;;;2.51;100.00
60373;BME280;46216;52.220;5.134;2023-03-03T06:11:24;102823.50;;;2.56;100.00
60373;BME280;46216;52.220;5.134;2023-03-03T06:13:50;102828.72;;;2.57;100.00
60373;BME280;46216;52.220;5.134;2023-03-03T06:16:15;102821.69;;;2.61;100.00
60373;BME280;46216;52.220;5.134;2023-03-03T06:18:41;102822.59;;;2.62;100.00
60373;BME280;46216;52.220;5.134;2023-03-03T06:21:06;102833.06;;;2.65;100.00
60373;BME280;46216;52.220;5.134;2023-03-03T06:23:31;102826.03;;;2.67;100.00
60373;BME280;46216;52.220;5.134;2023-03-03T06:25:57;102832.16;;;2.67;100.00
60373;BME280;46216;52.220;5.134;2023-03-03T06:28:22;102832.16;;;2.67;100.00
60373;BME280;46216;52.220;5.134;2023-03-03T06:30:53;102833.91;;;2.68;100.00
60373;BME280;46216;52.220;5.134;2023-03-03T06:33:18;102840.94;;;2.69;100.00
60373;BME280;46216;52.220;5.134;2023-03-03T06:35:48;102839.16;;;2.71;100.00
60373;BME280;46216;52.220;5.134;2023-03-03T06:38:14;102835.63;;;2.75;100.00
60373;BME280;46216;52.220;5.134;2023-03-03T06:40:39;102840.91;;;2.72;100.00
60373;BME280;46216;52.220;5.134;2023-03-03T06:43:05;102847.88;;;2.79;100.00
60373;BME280;46216;52.220;5.134;2023-03-03T06:45:30;102846.13;;;2.78;100.00
60373;BME280;46216;52.220;5.134;2023-03-03T06:47:55;102840.84;;;2.78;100.00
60373;BME280;46216;52.220;5.134;2023-03-03T06:50:21;102853.16;;;2.79;100.00
60373;BME280;46216;52.220;5.134;2023-03-03T06:52:47;102846.13;;;2.78;100.00
60373;BME280;46216;52.220;5.134;2023-03-03T06:55:19;102857.53;;;2.80;100.00
60373;BME280;46216;52.220;5.134;2023-03-03T06:57:46;102860.19;;;2.79;100.00
60373;BME280;46216;52.220;5.134;2023-03-03T07:00:16;102861.03;;;2.82;100.00
60373;BME280;46216;52.220;5.134;2023-03-03T07:02:42;102863.63;;;2.86;100.00
60373;BME280;46216;52.220;5.134;2023-03-03T07:05:14;102871.53;;;2.84;100.00
60373;BME280;46216;52.220;5.134;2023-03-03T07:07:40;102866.22;;;2.90;100.00
60373;BME280;46216;52.220;5.134;2023-03-03T07:10:15;102867.97;;;2.93;100.00
60373;BME280;46216;52.220;5.134;2023-03-03T07:12:42;102874.94;;;2.95;100.00
60373;BME280;46216;52.220;5.134;2023-03-03T07:15:43;102877.59;;;2.97;100.00
60373;BME280;46216;52.220;5.134;2023-03-03T07:20:45;102883.69;;;3.00;100.00
60373;BME280;46216;52.220;5.134;2023-03-03T07:23:19;102877.50;;;3.04;100.00
60373;BME280;46216;52.220;5.134;2023-03-03T07:25:45;102882.78;;;3.04;100.00
60373;BME280;46216;52.220;5.134;2023-03-03T07:28:27;102890.63;;;3.11;100.00
60373;BME280;46216;52.220;5.134;2023-03-03T07:30:55;102888.84;;;3.14;100.00
60373;BME280;46216;52.220;5.134;2023-03-03T07:33:26;102887.06;;;3.18;100.00
60373;BME280;46216;52.220;5.134;2023-03-03T07:35:55;102893.16;;;3.21;100.00
60373;BME280;46216;52.220;5.134;2023-03-03T07:38:34;102885.19;;;3.29;100.00
60373;BME280;46216;52.220;5.134;2023-03-03T07:41:03;102893.97;;;3.31;100.00
60373;BME280;46216;52.220;5.134;2023-03-03T07:43:34;102895.69;;;3.37;100.00
60373;BME280;46216;52.220;5.134;2023-03-03T07:48:47;102906.19;;;3.40;100.00
60373;BME280;46216;52.220;5.134;2023-03-03T07:51:18;102907.03;;;3.42;100.00
60373;BME280;46216;52.220;5.134;2023-03-03T07:53:47;102909.63;;;3.46;100.00
60373;BME280;46216;52.220;5.134;2023-03-03T07:56:29;102914.84;;;3.49;100.00
60373;BME280;46216;52.220;5.134;2023-03-03T07:58:58;102907.81;;;3.51;100.00
60373;BME280;46216;52.220;5.134;2023-03-03T08:01:45;102919.19;;;3.56;100.00
60373;BME280;46216;52.220;5.134;2023-03-03T08:04:39;102917.41;;;3.60;100.00
60373;BME280;46216;52.220;5.134;2023-03-03T08:07:13;102917.31;;;3.66;100.00
60373;BME280;46216;52.220;5.134;2023-03-03T08:09:45;102919.88;;;3.75;100.00
60373;BME280;46216;52.220;5.134;2023-03-03T08:14:54;102919.81;;;3.80;100.00
60373;BME280;46216;52.220;5.134;2023-03-03T08:17:24;102936.44;;;3.87;100.00
60373;BME280;46216;52.220;5.134;2023-03-03T08:19:52;102925.03;;;3.88;100.00
60373;BME280;46216;52.220;5.134;2023-03-03T08:22:30;102935.47;;;3.94;100.00
60373;BME280;46216;52.220;5.134;2023-03-03T08:24:57;102936.25;;;4.03;100.00
60373;BME280;46216;52.220;5.134;2023-03-03T08:27:23;102934.50;;;4.04;100.00
60373;BME280;46216;52.220;5.134;2023-03-03T08:29:48;102932.72;;;4.06;100.00
60373;BME280;46216;52.220;5.134;2023-03-03T08:32:14;102941.47;;;4.11;100.00
60373;BME280;46216;52.220;5.134;2023-03-03T08:34:39;102939.63;;;4.16;100.00
60373;BME280;46216;52.220;5.134;2023-03-03T08:37:05;102937.78;;;4.23;100.00
60373;BME280;46216;52.220;5.134;2023-03-03T08:39:30;102944.88;;;4.19;100.00
60373;BME280;46216;52.220;5.134;2023-03-03T08:41:56;102941.25;;;4.26;100.00
60373;BME280;46216;52.220;5.134;2023-03-03T08:44:21;102939.47;;;4.32;100.00
60373;BME280;46216;52.220;5.134;2023-03-03T08:46:47;102942.03;;;4.35;100.00
60373;BME280;46216;52.220;5.134;2023-03-03T08:49:12;102937.50;;;4.44;100.00
60373;BME280;46216;52.220;5.134;2023-03-03T08:51:40;102944.41;;;4.56;100.00
60373;BME280;46216;52.220;5.134;2023-03-03T08:54:06;102947.84;;;4.61;100.00
60373;BME280;46216;52.220;5.134;2023-03-03T08:56:31;102934.53;;;4.69;100.00
60373;BME280;46216;52.220;5.134;2023-03-03T08:58:57;102943.31;;;4.71;100.00
60373;BME280;46216;52.220;5.134;2023-03-03T09:01:22;102943.22;;;4.77;100.00
60373;BME280;46216;52.220;5.134;2023-03-03T09:03:47;102944.00;;;4.84;100.00
60373;BME280;46216;52.220;5.134;2023-03-03T09:06:13;102945.56;;;4.95;100.00
60373;BME280;46216;52.220;5.134;2023-03-03T09:08:38;102938.38;;;5.05;100.00
60373;BME280;46216;52.220;5.134;2023-03-03T09:11:13;102939.38;;;5.00;100.00
60373;BME280;46216;52.220;5.134;2023-03-03T09:13:39;102938.28;;;5.11;100.00
60373;BME280;46216;52.220;5.134;2023-03-03T09:16:13;102946.16;;;5.14;100.00
60373;BME280;46216;52.220;5.134;2023-03-03T09:18:39;102942.44;;;5.26;100.00
60373;BME280;46216;52.220;5.134;2023-03-03T09:21:20;102946.03;;;5.22;100.00
60373;BME280;46216;52.220;5.134;2023-03-03T09:23:50;102937.91;;;5.33;100.00
60373;BME280;46216;52.220;5.134;2023-03-03T09:28:46;102941.22;;;5.47;100.00
60373;BME280;46216;52.220;5.134;2023-03-03T09:31:23;102930.41;;;5.59;100.00
60373;BME280;46216;52.220;5.134;2023-03-03T09:33:48;102930.44;;;5.56;100.00
60373;BME280;46216;52.220;5.134;2023-03-03T09:36:34;102928.78;;;5.52;100.00
60373;BME280;46216;52.220;5.134;2023-03-03T09:39:15;102922.41;;;5.64;100.00
60373;BME280;46216;52.220;5.134;2023-03-03T09:41:54;102926.63;;;5.73;100.00
60373;BME280;46216;52.220;5.134;2023-03-03T09:53:18;102926.50;;;6.25;100.00
60373;BME280;46216;52.220;5.134;2023-03-03T10:06:41;102939.38;;;6.42;100.00
60373;BME280;46216;52.220;5.134;2023-03-03T10:11:57;102938.09;;;6.20;100.00
60373;BME280;46216;52.220;5.134;2023-03-03T10:19:40;102930.53;;;6.43;100.00
60373;BME280;46216;52.220;5.134;2023-03-03T10:28:10;102931.84;;;7.01;100.00
60373;BME280;46216;52.220;5.134;2023-03-03T10:36:38;102919.72;;;7.59;100.00
60373;BME280;46216;52.220;5.134;2023-03-03T10:39:20;102924.22;;;7.57;100.00
60373;BME280;46216;52.220;5.134;2023-03-03T10:50:50;102900.41;;;8.48;100.00
60373;BME280;46216;52.220;5.134;2023-03-03T10:53:31;102902.69;;;8.60;100.00
60373;BME280;46216;52.220;5.134;2023-03-03T10:56:10;102902.47;;;8.94;100.00
60373;BME280;46216;52.220;5.134;2023-03-03T11:01:32;102894.41;;;8.97;100.00
60373;BME280;46216;52.220;5.134;2023-03-03T11:07:13;102881.94;;;9.75;100.00
60373;BME280;46216;52.220;5.134;2023-03-03T11:12:23;102873.31;;;10.15;100.00
60373;BME280;46216;52.220;5.134;2023-03-03T11:20:54;102867.84;;;10.65;100.00
60373;BME280;46216;52.220;5.134;2023-03-03T11:23:36;102871.19;;;10.70;100.00
60373;BME280;46216;52.220;5.134;2023-03-03T11:29:04;102859.84;;;10.19;100.00
60373;BME280;46216;52.220;5.134;2023-03-03T11:31:37;102861.13;;;10.33;100.00
60373;BME280;46216;52.220;5.134;2023-03-03T11:34:24;102856.75;;;10.54;100.00
60373;BME280;46216;52.220;5.134;2023-03-03T11:37:24;102856.44;;;10.61;100.00
60373;BME280;46216;52.220;5.134;2023-03-03T11:39:53;102857.53;;;10.78;100.00
60373;BME280;46216;52.220;5.134;2023-03-03T11:47:44;102853.44;;;10.69;100.00
60373;BME280;46216;52.220;5.134;2023-03-03T11:50:25;102854.56;;;10.41;100.00
60373;BME280;46216;52.220;5.134;2023-03-03T11:55:30;102844.53;;;10.01;100.00
60373;BME280;46216;52.220;5.134;2023-03-03T11:58:10;102858.97;;;9.72;100.00
60373;BME280;46216;52.220;5.134;2023-03-03T12:03:44;102853.25;;;9.34;100.00
60373;BME280;46216;52.220;5.134;2023-03-03T12:06:21;102844.94;;;9.67;100.00
60373;BME280;46216;52.220;5.134;2023-03-03T12:12:21;102833.84;;;10.26;100.00
60373;BME280;46216;52.220;5.134;2023-03-03T12:17:47;102829.81;;;10.38;100.00
60373;BME280;46216;52.220;5.134;2023-03-03T12:20:30;102828.13;;;10.35;100.00
60373;BME280;46216;52.220;5.134;2023-03-03T12:26:19;102831.63;;;9.90;100.00
60373;BME280;46216;52.220;5.134;2023-03-03T12:28:53;102828.41;;;9.82;100.00
60373;BME280;46216;52.220;5.134;2023-03-03T12:31:31;102822.91;;;9.87;100.00
60373;BME280;46216;52.220;5.134;2023-03-03T12:34:18;102822.59;;;9.94;100.00
60373;BME280;46216;52.220;5.134;2023-03-03T12:42:44;102810.00;;;10.87;100.00
60373;BME280;46216;52.220;5.134;2023-03-03T12:47:52;102804.44;;;11.14;100.00
60373;BME280;46216;52.220;5.134;2023-03-03T12:50:40;102804.56;;;10.91;100.00
60373;BME280;46216;52.220;5.134;2023-03-03T12:58:26;102802.50;;;10.33;100.00
60373;BME280;46216;52.220;5.134;2023-03-03T13:06:37;102802.00;;;10.22;100.00
60373;BME280;46216;52.220;5.134;2023-03-03T13:11:46;102806.88;;;10.56;100.00
60373;BME280;46216;52.220;5.134;2023-03-03T13:14:36;102802.09;;;10.42;100.00
60373;BME280;46216;52.220;5.134;2023-03-03T13:19:58;102798.19;;;10.05;100.00
60373;BME280;46216;52.220;5.134;2023-03-03T13:22:38;102802.13;;;9.97;100.00
60373;BME280;46216;52.220;5.134;2023-03-03T13:27:49;102802.00;;;9.76;100.00
60373;BME280;46216;52.220;5.134;2023-03-03T13:30:22;102798.28;;;9.57;100.00
60373;BME280;46216;52.220;5.134;2023-03-03T13:38:27;102800.53;;;9.44;100.00
60373;BME280;46216;52.220;5.134;2023-03-03T13:41:04;102804.19;;;9.41;100.00
60373;BME280;46216;52.220;5.134;2023-03-03T13:43:53;102808.22;;;9.28;100.00
60373;BME280;46216;52.220;5.134;2023-03-03T13:46:45;102806.59;;;9.24;100.00
60373;BME280;46216;52.220;5.134;2023-03-03T13:49:44;102802.25;;;9.21;100.00
60373;BME280;46216;52.220;5.134;2023-03-03T13:52:19;102801.47;;;9.18;100.00
60373;BME280;46216;52.220;5.134;2023-03-03T14:00:58;102798.31;;;9.07;100.00
60373;BME280;46216;52.220;5.134;2023-03-03T14:03:51;102803.88;;;9.00;100.00
60373;BME280;46216;52.220;5.134;2023-03-03T14:06:21;102805.69;;;8.98;100.00
60373;BME280;46216;52.220;5.134;2023-03-03T14:11:39;102801.09;;;9.04;100.00
60373;BME280;46216;52.220;5.134;2023-03-03T14:14:15;102804.66;;;9.03;100.00
60373;BME280;46216;52.220;5.134;2023-03-03T14:16:56;102806.72;;;8.94;100.00
60373;BME280;46216;52.220;5.134;2023-03-03T14:19:31;102809.22;;;8.99;100.00
60373;BME280;46216;52.220;5.134;2023-03-03T14:22:05;102804.94;;;8.95;100.00
60373;BME280;46216;52.220;5.134;2023-03-03T14:28:04;102804.38;;;8.85;100.00
60373;BME280;46216;52.220;5.134;2023-03-03T14:35:35;102788.25;;;8.90;100.00
60373;BME280;46216;52.220;5.134;2023-03-03T14:38:19;102790.00;;;8.91;100.00
60373;BME280;46216;52.220;5.134;2023-03-03T14:40:47;102784.91;;;8.85;100.00
60373;BME280;46216;52.220;5.134;2023-03-03T14:43:25;102788.69;;;8.77;100.00
60373;BME280;46216;52.220;5.134;2023-03-03T14:45:52;102789.34;;;8.84;100.00
60373;BME280;46216;52.220;5.134;2023-03-03T14:48:26;102772.75;;;8.77;100.00
60373;BME280;46216;52.220;5.134;2023-03-03T14:50:55;102779.00;;;8.76;100.00
60373;BME280;46216;52.220;5.134;2023-03-03T14:53:37;102776.47;;;8.72;100.00
60373;BME280;46216;52.220;5.134;2023-03-03T14:56:28;102772.84;;;8.74;100.00
60373;BME280;46216;52.220;5.134;2023-03-03T14:59:19;102771.97;;;8.74;100.00
60373;BME280;46216;52.220;5.134;2023-03-03T15:01:45;102774.63;;;8.74;100.00
60373;BME280;46216;52.220;5.134;2023-03-03T15:06:42;102767.69;;;8.70;100.00
60373;BME280;46216;52.220;5.134;2023-03-03T15:09:27;102774.56;;;8.75;100.00
60373;BME280;46216;52.220;5.134;2023-03-03T15:12:32;102775.22;;;8.82;100.00
60373;BME280;46216;52.220;5.134;2023-03-03T15:31:07;102752.91;;;8.61;100.00
60373;BME280;46216;52.220;5.134;2023-03-03T15:36:30;102747.75;;;8.57;100.00
60373;BME280;46216;52.220;5.134;2023-03-03T15:39:19;102748.53;;;8.60;100.00
60373;BME280;46216;52.220;5.134;2023-03-03T15:50:17;102750.63;;;8.50;100.00
60373;BME280;46216;52.220;5.134;2023-03-03T15:59:01;102742.75;;;8.47;100.00
60373;BME280;46216;52.220;5.134;2023-03-03T16:01:37;102741.91;;;8.45;100.00
60373;BME280;46216;52.220;5.134;2023-03-03T16:04:13;102735.81;;;8.43;100.00
60373;BME280;46216;52.220;5.134;2023-03-03T16:17:53;102741.38;;;8.34;100.00
60373;BME280;46216;52.220;5.134;2023-03-03T16:23:28;102731.88;;;8.27;100.00
60373;BME280;46216;52.220;5.134;2023-03-03T16:26:07;102739.94;;;8.24;100.00
60373;BME280;46216;52.220;5.134;2023-03-03T16:28:46;102738.25;;;8.21;100.00
60373;BME280;46216;52.220;5.134;2023-03-03T16:31:24;102728.44;;;8.23;100.00
60373;BME280;46216;52.220;5.134;2023-03-03T16:36:50;102738.59;;;8.11;100.00
60373;BME280;46216;52.220;5.134;2023-03-03T16:42:19;102737.13;;;8.02;100.00
60373;BME280;46216;52.220;5.134;2023-03-03T16:50:18;102733.72;;;7.97;100.00
60373;BME280;46216;52.220;5.134;2023-03-03T16:52:53;102739.19;;;7.92;100.00